sensor_id;sensor_type;location;lat;lon;timestamp;P1;durP1;ratioP1;P2;durP2;ratioP2
38785;SDS011;24535;45.508;12.252;2023-04-15T00:00:14;4.03;;;3.63;;
38785;SDS011;24535;45.508;12.252;2023-04-15T00:02:40;9.73;;;4.45;;
38785;SDS011;24535;45.508;12.252;2023-04-15T00:05:06;5.57;;;4.07;;
38785;SDS011;24535;45.508;12.252;2023-04-15T00:07:32;5.30;;;4.25;;
38785;SDS011;24535;45.508;12.252;2023-04-15T00:09:58;4.05;;;3.65;;
38785;SDS011;24535;45.508;12.252;2023-04-15T00:12:24;6.18;;;3.88;;
38785;SDS011;24535;45.508;12.252;2023-04-15T00:14:53;4.03;;;3.63;;
38785;SDS011;24535;45.508;12.252;2023-04-15T00:17:21;4.72;;;4.22;;
38785;SDS011;24535;45.508;12.252;2023-04-15T00:19:46;8.60;;;4.07;;
38785;SDS011;24535;45.508;12.252;2023-04-15T00:22:12;3.95;;;3.55;;
38785;SDS011;24535;45.508;12.252;2023-04-15T00:24:38;4.68;;;4.28;;
38785;SDS011;24535;45.508;12.252;2023-04-15T00:27:06;6.13;;;5.15;;
38785;SDS011;24535;45.508;12.252;2023-04-15T00:29:32;7.38;;;4.75;;
38785;SDS011;24535;45.508;12.252;2023-04-15T00:31:58;4.30;;;3.90;;
38785;SDS011;24535;45.508;12.252;2023-04-15T00:34:23;5.80;;;4.90;;
38785;SDS011;24535;45.508;12.252;2023-04-15T00:36:52;6.65;;;4.65;;
38785;SDS011;24535;45.508;12.252;2023-04-15T00:39:17;8.07;;;5.13;;
38785;SDS011;24535;45.508;12.252;2023-04-15T00:41:43;5.53;;;4.32;;
38785;SDS011;24535;45.508;12.252;2023-04-15T00:44:09;4.60;;;4.20;;
38785;SDS011;24535;45.508;12.252;2023-04-15T00:46:35;4.28;;;3.88;;
38785;SDS011;24535;45.508;12.252;2023-04-15T00:49:05;5.25;;;4.18;;
38785;SDS011;24535;45.508;12.252;2023-04-15T00:51:32;5.38;;;4.35;;
38785;SDS011;24535;45.508;12.252;2023-04-15T00:54:00;6.55;;;4.65;;
38785;SDS011;24535;45.508;12.252;2023-04-15T00:56:27;5.28;;;4.13;;
38785;SDS011;24535;45.508;12.252;2023-04-15T00:58:53;5.28;;;4.43;;
38785;SDS011;24535;45.508;12.252;2023-04-15T01:01:20;4.57;;;4.15;;
38785;SDS011;24535;45.508;12.252;2023-04-15T01:03:47;4.38;;;3.90;;
38785;SDS011;24535;45.508;12.252;2023-04-15T01:06:14;4.47;;;4.07;;
38785;SDS011;24535;45.508;12.252;2023-04-15T01:08:40;12.07;;;4.13;;
38785;SDS011;24535;45.508;12.252;2023-04-15T01:11:06;5.32;;;4.38;;
38785;SDS011;24535;45.508;12.252;2023-04-15T01:13:33;6.13;;;4.57;;
38785;SDS011;24535;45.508;12.252;2023-04-15T01:15:59;6.55;;;4.03;;
38785;SDS011;24535;45.508;12.252;2023-04-15T01:18:25;5.45;;;4.18;;
38785;SDS011;24535;45.508;12.252;2023-04-15T01:20:52;6.75;;;4.60;;
38785;SDS011;24535;45.508;12.252;2023-04-15T01:23:17;6.43;;;4.90;;
38785;SDS011;24535;45.508;12.252;2023-04-15T01:25:46;5.03;;;4.53;;
38785;SDS011;24535;45.508;12.252;2023-04-15T01:28:19;5.40;;;4.38;;
38785;SDS011;24535;45.508;12.252;2023-04-15T01:30:45;6.07;;;4.05;;
38785;SDS011;24535;45.508;12.252;2023-04-15T01:33:10;5.32;;;4.13;;
38785;SDS011;24535;45.508;12.252;2023-04-15T01:35:36;4.93;;;4.43;;
38785;SDS011;24535;45.508;12.252;2023-04-15T01:38:12;6.43;;;4.32;;
38785;SDS011;24535;45.508;12.252;2023-04-15T01:40:49;6.87;;;4.90;;
38785;SDS011;24535;45.508;12.252;2023-04-15T01:43:14;7.78;;;4.07;;
38785;SDS011;24535;45.508;12.252;2023-04-15T01:45:40;4.82;;;4.40;;
38785;SDS011;24535;45.508;12.252;2023-04-15T01:48:05;5.20;;;4.55;;
38785;SDS011;24535;45.508;12.252;2023-04-15T01:50:31;6.43;;;3.67;;
38785;SDS011;24535;45.508;12.252;2023-04-15T01:52:56;4.95;;;4.38;;
38785;SDS011;24535;45.508;12.252;2023-04-15T01:55:22;5.15;;;4.65;;
38785;SDS011;24535;45.508;12.252;2023-04-15T01:57:47;5.93;;;4.57;;
38785;SDS011;24535;45.508;12.252;2023-04-15T02:00:13;5.57;;;4.43;;
38785;SDS011;24535;45.508;12.252;2023-04-15T02:02:39;4.90;;;4.35;;
38785;SDS011;24535;45.508;12.252;2023-04-15T02:05:04;7.20;;;4.38;;
38785;SDS011;24535;45.508;12.252;2023-04-15T02:07:30;5.78;;;4.28;;
38785;SDS011;24535;45.508;12.252;2023-04-15T02:09:56;5.68;;;4.00;;
38785;SDS011;24535;45.508;12.252;2023-04-15T02:12:22;5.72;;;4.32;;
38785;SDS011;24535;45.508;12.252;2023-04-15T02:14:47;5.57;;;3.83;;
38785;SDS011;24535;45.508;12.252;2023-04-15T02:17:12;5.63;;;4.40;;
38785;SDS011;24535;45.508;12.252;2023-04-15T02:19:40;8.55;;;4.60;;
38785;SDS011;24535;45.508;12.252;2023-04-15T02:22:06;11.05;;;4.25;;
38785;SDS011;24535;45.508;12.252;2023-04-15T02:24:33;5.72;;;4.38;;
38785;SDS011;24535;45.508;12.252;2023-04-15T02:26:59;5.00;;;4.50;;
38785;SDS011;24535;45.508;12.252;2023-04-15T02:29:25;7.13;;;4.90;;
38785;SDS011;24535;45.508;12.252;2023-04-15T02:31:51;5.55;;;5.05;;
38785;SDS011;24535;45.508;12.252;2023-04-15T02:34:16;5.95;;;5.32;;
38785;SDS011;24535;45.508;12.252;2023-04-15T02:36:42;6.47;;;5.15;;
38785;SDS011;24535;45.508;12.252;2023-04-15T02:39:13;7.47;;;5.78;;
38785;SDS011;24535;45.508;12.252;2023-04-15T02:41:42;6.20;;;5.57;;
38785;SDS011;24535;45.508;12.252;2023-04-15T02:44:17;7.05;;;6.35;;
38785;SDS011;24535;45.508;12.252;2023-04-15T02:46:44;6.55;;;5.97;;
38785;SDS011;24535;45.508;12.252;2023-04-15T02:49:16;9.98;;;6.57;;
38785;SDS011;24535;45.508;12.252;2023-04-15T02:51:42;6.82;;;6.13;;
38785;SDS011;24535;45.508;12.252;2023-04-15T02:54:07;7.57;;;6.65;;
38785;SDS011;24535;45.508;12.252;2023-04-15T02:56:45;7.65;;;6.65;;
38785;SDS011;24535;45.508;12.252;2023-04-15T02:59:17;7.20;;;6.50;;
38785;SDS011;24535;45.508;12.252;2023-04-15T03:01:42;9.05;;;6.95;;
38785;SDS011;24535;45.508;12.252;2023-04-15T03:04:08;8.38;;;7.38;;
38785;SDS011;24535;45.508;12.252;2023-04-15T03:06:34;8.00;;;7.20;;
38785;SDS011;24535;45.508;12.252;2023-04-15T03:08:59;10.05;;;7.82;;
38785;SDS011;24535;45.508;12.252;2023-04-15T03:11:27;8.20;;;7.40;;
38785;SDS011;24535;45.508;12.252;2023-04-15T03:13:53;9.30;;;7.53;;
38785;SDS011;24535;45.508;12.252;2023-04-15T03:16:19;8.05;;;7.32;;
38785;SDS011;24535;45.508;12.252;2023-04-15T03:18:45;13.55;;;8.15;;
38785;SDS011;24535;45.508;12.252;2023-04-15T03:21:11;8.75;;;7.85;;
38785;SDS011;24535;45.508;12.252;2023-04-15T03:23:36;9.48;;;7.78;;
38785;SDS011;24535;45.508;12.252;2023-04-15T03:26:02;9.00;;;8.10;;
38785;SDS011;24535;45.508;12.252;2023-04-15T03:28:28;9.00;;;8.07;;
38785;SDS011;24535;45.508;12.252;2023-04-15T03:30:54;9.05;;;7.65;;
38785;SDS011;24535;45.508;12.252;2023-04-15T03:33:20;9.35;;;8.38;;
38785;SDS011;24535;45.508;12.252;2023-04-15T03:35:45;8.35;;;7.55;;
38785;SDS011;24535;45.508;12.252;2023-04-15T03:38:11;10.30;;;7.70;;
38785;SDS011;24535;45.508;12.252;2023-04-15T03:40:37;10.23;;;7.53;;
38785;SDS011;24535;45.508;12.252;2023-04-15T03:43:05;8.25;;;7.45;;
38785;SDS011;24535;45.508;12.252;2023-04-15T03:45:31;7.47;;;6.72;;
38785;SDS011;24535;45.508;12.252;2023-04-15T03:47:56;8.85;;;7.97;;
38785;SDS011;24535;45.508;12.252;2023-04-15T03:50:22;10.25;;;7.63;;
38785;SDS011;24535;45.508;12.252;2023-04-15T03:52:47;9.18;;;8.10;;
38785;SDS011;24535;45.508;12.252;2023-04-15T03:55:13;11.27;;;8.00;;
38785;SDS011;24535;45.508;12.252;2023-04-15T03:57:39;10.63;;;8.23;;
38785;SDS011;24535;45.508;12.252;2023-04-15T04:00:05;9.65;;;7.72;;
38785;SDS011;24535;45.508;12.252;2023-04-15T04:02:33;7.85;;;6.57;;
38785;SDS011;24535;45.508;12.252;2023-04-15T04:04:58;9.25;;;8.05;;
38785;SDS011;24535;45.508;12.252;2023-04-15T04:07:24;10.63;;;8.00;;
38785;SDS011;24535;45.508;12.252;2023-04-15T04:09:49;10.02;;;7.80;;
38785;SDS011;24535;45.508;12.252;2023-04-15T04:12:15;11.43;;;9.07;;
38785;SDS011;24535;45.508;12.252;2023-04-15T04:14:40;9.68;;;7.97;;
38785;SDS011;24535;45.508;12.252;2023-04-15T04:17:06;9.30;;;8.32;;
38785;SDS011;24535;45.508;12.252;2023-04-15T04:19:32;11.88;;;7.68;;
38785;SDS011;24535;45.508;12.252;2023-04-15T04:21:58;8.75;;;7.60;;
38785;SDS011;24535;45.508;12.252;2023-04-15T04:24:23;9.32;;;8.32;;
38785;SDS011;24535;45.508;12.252;2023-04-15T04:26:48;10.60;;;7.93;;
38785;SDS011;24535;45.508;12.252;2023-04-15T04:29:14;10.85;;;8.27;;
38785;SDS011;24535;45.508;12.252;2023-04-15T04:31:40;10.82;;;8.32;;
38785;SDS011;24535;45.508;12.252;2023-04-15T04:34:05;13.15;;;8.95;;
38785;SDS011;24535;45.508;12.252;2023-04-15T04:36:31;12.02;;;8.32;;
38785;SDS011;24535;45.508;12.252;2023-04-15T04:38:57;8.05;;;7.35;;
38785;SDS011;24535;45.508;12.252;2023-04-15T04:41:22;13.00;;;7.55;;
38785;SDS011;24535;45.508;12.252;2023-04-15T04:43:48;9.20;;;7.03;;
38785;SDS011;24535;45.508;12.252;2023-04-15T04:46:13;8.73;;;7.10;;
38785;SDS011;24535;45.508;12.252;2023-04-15T04:48:39;9.18;;;6.28;;
38785;SDS011;24535;45.508;12.252;2023-04-15T04:51:05;8.02;;;6.70;;
38785;SDS011;24535;45.508;12.252;2023-04-15T04:53:32;8.43;;;6.75;;
38785;SDS011;24535;45.508;12.252;2023-04-15T04:55:57;8.25;;;5.72;;
38785;SDS011;24535;45.508;12.252;2023-04-15T04:58:23;8.55;;;5.15;;
38785;SDS011;24535;45.508;12.252;2023-04-15T05:00:48;9.98;;;5.50;;
38785;SDS011;24535;45.508;12.252;2023-04-15T05:03:14;5.88;;;5.13;;
38785;SDS011;24535;45.508;12.252;2023-04-15T05:05:40;6.68;;;4.75;;
38785;SDS011;24535;45.508;12.252;2023-04-15T05:08:05;6.97;;;4.18;;
38785;SDS011;24535;45.508;12.252;2023-04-15T05:10:31;11.45;;;4.80;;
38785;SDS011;24535;45.508;12.252;2023-04-15T05:12:57;6.47;;;4.15;;
38785;SDS011;24535;45.508;12.252;2023-04-15T05:15:22;5.53;;;3.65;;
38785;SDS011;24535;45.508;12.252;2023-04-15T05:17:48;5.30;;;3.63;;
38785;SDS011;24535;45.508;12.252;2023-04-15T05:20:13;5.32;;;3.80;;
38785;SDS011;24535;45.508;12.252;2023-04-15T05:22:39;4.78;;;3.67;;
38785;SDS011;24535;45.508;12.252;2023-04-15T05:25:05;5.57;;;3.47;;
38785;SDS011;24535;45.508;12.252;2023-04-15T05:27:31;7.40;;;4.03;;
38785;SDS011;24535;45.508;12.252;2023-04-15T05:29:56;3.25;;;2.95;;
38785;SDS011;24535;45.508;12.252;2023-04-15T05:32:22;5.07;;;3.50;;
38785;SDS011;24535;45.508;12.252;2023-04-15T05:34:47;5.40;;;3.10;;
38785;SDS011;24535;45.508;12.252;2023-04-15T05:37:13;6.60;;;3.72;;
38785;SDS011;24535;45.508;12.252;2023-04-15T05:39:38;3.97;;;3.00;;
38785;SDS011;24535;45.508;12.252;2023-04-15T05:42:04;7.50;;;2.85;;
38785;SDS011;24535;45.508;12.252;2023-04-15T05:44:30;5.85;;;2.90;;
38785;SDS011;24535;45.508;12.252;2023-04-15T05:46:55;4.47;;;3.08;;
38785;SDS011;24535;45.508;12.252;2023-04-15T05:49:22;5.70;;;2.72;;
38785;SDS011;24535;45.508;12.252;2023-04-15T05:51:47;7.53;;;2.75;;
38785;SDS011;24535;45.508;12.252;2023-04-15T05:54:13;3.95;;;2.47;;
38785;SDS011;24535;45.508;12.252;2023-04-15T05:56:38;5.00;;;2.97;;
38785;SDS011;24535;45.508;12.252;2023-04-15T05:59:03;4.45;;;2.60;;
38785;SDS011;24535;45.508;12.252;2023-04-15T06:01:29;10.32;;;3.53;;
38785;SDS011;24535;45.508;12.252;2023-04-15T06:03:55;3.97;;;2.97;;
38785;SDS011;24535;45.508;12.252;2023-04-15T06:06:20;7.07;;;3.10;;
38785;SDS011;24535;45.508;12.252;2023-04-15T06:08:46;3.17;;;2.60;;
38785;SDS011;24535;45.508;12.252;2023-04-15T06:11:12;4.68;;;3.22;;
38785;SDS011;24535;45.508;12.252;2023-04-15T06:13:37;4.45;;;2.97;;
38785;SDS011;24535;45.508;12.252;2023-04-15T06:16:03;3.85;;;2.95;;
38785;SDS011;24535;45.508;12.252;2023-04-15T06:18:28;4.85;;;3.08;;
38785;SDS011;24535;45.508;12.252;2023-04-15T06:20:54;6.40;;;3.28;;
38785;SDS011;24535;45.508;12.252;2023-04-15T06:23:19;6.22;;;2.80;;
38785;SDS011;24535;45.508;12.252;2023-04-15T06:25:45;5.18;;;2.88;;
38785;SDS011;24535;45.508;12.252;2023-04-15T06:28:10;3.90;;;3.20;;
38785;SDS011;24535;45.508;12.252;2023-04-15T06:30:36;4.43;;;3.30;;
38785;SDS011;24535;45.508;12.252;2023-04-15T06:33:02;6.55;;;3.88;;
38785;SDS011;24535;45.508;12.252;2023-04-15T06:35:29;7.25;;;3.03;;
38785;SDS011;24535;45.508;12.252;2023-04-15T06:37:55;6.88;;;3.33;;
38785;SDS011;24535;45.508;12.252;2023-04-15T06:40:21;4.95;;;3.30;;
38785;SDS011;24535;45.508;12.252;2023-04-15T06:42:46;6.90;;;3.42;;
38785;SDS011;24535;45.508;12.252;2023-04-15T06:45:12;5.47;;;2.88;;
38785;SDS011;24535;45.508;12.252;2023-04-15T06:47:38;3.17;;;2.67;;
38785;SDS011;24535;45.508;12.252;2023-04-15T06:50:03;7.32;;;3.05;;
38785;SDS011;24535;45.508;12.252;2023-04-15T06:52:29;7.00;;;3.28;;
38785;SDS011;24535;45.508;12.252;2023-04-15T06:54:55;3.80;;;3.20;;
38785;SDS011;24535;45.508;12.252;2023-04-15T06:57:21;6.80;;;3.22;;
38785;SDS011;24535;45.508;12.252;2023-04-15T06:59:46;5.25;;;3.42;;
38785;SDS011;24535;45.508;12.252;2023-04-15T07:02:12;3.97;;;3.10;;
38785;SDS011;24535;45.508;12.252;2023-04-15T07:04:38;6.00;;;3.65;;
38785;SDS011;24535;45.508;12.252;2023-04-15T07:07:04;5.80;;;3.60;;
38785;SDS011;24535;45.508;12.252;2023-04-15T07:09:30;7.15;;;3.15;;
38785;SDS011;24535;45.508;12.252;2023-04-15T07:11:56;7.13;;;3.92;;
38785;SDS011;24535;45.508;12.252;2023-04-15T07:14:21;5.82;;;3.33;;
38785;SDS011;24535;45.508;12.252;2023-04-15T07:16:47;6.55;;;4.18;;
38785;SDS011;24535;45.508;12.252;2023-04-15T07:19:12;9.45;;;3.28;;
38785;SDS011;24535;45.508;12.252;2023-04-15T07:21:38;4.55;;;3.45;;
38785;SDS011;24535;45.508;12.252;2023-04-15T07:24:03;5.68;;;3.33;;
38785;SDS011;24535;45.508;12.252;2023-04-15T07:26:29;3.78;;;3.05;;
38785;SDS011;24535;45.508;12.252;2023-04-15T07:28:54;6.10;;;3.50;;
38785;SDS011;24535;45.508;12.252;2023-04-15T07:31:20;8.13;;;3.53;;
38785;SDS011;24535;45.508;12.252;2023-04-15T07:33:46;4.43;;;3.30;;
38785;SDS011;24535;45.508;12.252;2023-04-15T07:36:11;4.63;;;3.35;;
38785;SDS011;24535;45.508;12.252;2023-04-15T07:38:37;5.03;;;3.25;;
38785;SDS011;24535;45.508;12.252;2023-04-15T07:41:06;4.60;;;3.35;;
38785;SDS011;24535;45.508;12.252;2023-04-15T07:43:32;7.20;;;3.55;;
38785;SDS011;24535;45.508;12.252;2023-04-15T07:45:57;6.70;;;3.88;;
38785;SDS011;24535;45.508;12.252;2023-04-15T07:48:23;3.97;;;2.55;;
38785;SDS011;24535;45.508;12.252;2023-04-15T07:50:49;8.48;;;3.40;;
38785;SDS011;24535;45.508;12.252;2023-04-15T07:53:18;5.22;;;3.05;;
38785;SDS011;24535;45.508;12.252;2023-04-15T07:55:44;6.32;;;3.28;;
38785;SDS011;24535;45.508;12.252;2023-04-15T07:58:10;5.78;;;3.65;;
38785;SDS011;24535;45.508;12.252;2023-04-15T08:00:35;7.20;;;3.17;;
38785;SDS011;24535;45.508;12.252;2023-04-15T08:03:02;6.85;;;3.85;;
38785;SDS011;24535;45.508;12.252;2023-04-15T08:05:27;7.38;;;3.47;;
38785;SDS011;24535;45.508;12.252;2023-04-15T08:07:53;6.55;;;2.92;;
38785;SDS011;24535;45.508;12.252;2023-04-15T08:10:18;10.48;;;2.97;;
38785;SDS011;24535;45.508;12.252;2023-04-15T08:12:44;6.50;;;3.08;;
38785;SDS011;24535;45.508;12.252;2023-04-15T08:15:13;7.95;;;2.95;;
38785;SDS011;24535;45.508;12.252;2023-04-15T08:17:38;6.65;;;2.42;;
38785;SDS011;24535;45.508;12.252;2023-04-15T08:20:04;8.23;;;2.42;;
38785;SDS011;24535;45.508;12.252;2023-04-15T08:22:30;7.07;;;2.92;;
38785;SDS011;24535;45.508;12.252;2023-04-15T08:24:55;7.05;;;2.88;;
38785;SDS011;24535;45.508;12.252;2023-04-15T08:27:21;8.65;;;2.78;;
38785;SDS011;24535;45.508;12.252;2023-04-15T08:29:47;3.85;;;2.60;;
38785;SDS011;24535;45.508;12.252;2023-04-15T08:32:12;7.85;;;2.50;;
38785;SDS011;24535;45.508;12.252;2023-04-15T08:34:40;6.75;;;2.92;;
38785;SDS011;24535;45.508;12.252;2023-04-15T08:37:06;4.85;;;2.42;;
38785;SDS011;24535;45.508;12.252;2023-04-15T08:39:32;8.27;;;2.10;;
38785;SDS011;24535;45.508;12.252;2023-04-15T08:42:01;5.47;;;1.95;;
38785;SDS011;24535;45.508;12.252;2023-04-15T08:44:32;4.68;;;2.17;;
38785;SDS011;24535;45.508;12.252;2023-04-15T08:47:01;6.05;;;2.10;;
38785;SDS011;24535;45.508;12.252;2023-04-15T08:49:28;3.08;;;1.50;;
38785;SDS011;24535;45.508;12.252;2023-04-15T08:51:55;3.28;;;1.73;;
38785;SDS011;24535;45.508;12.252;2023-04-15T08:54:22;2.63;;;1.42;;
38785;SDS011;24535;45.508;12.252;2023-04-15T08:56:48;3.42;;;1.73;;
38785;SDS011;24535;45.508;12.252;2023-04-15T08:59:14;5.45;;;2.00;;
38785;SDS011;24535;45.508;12.252;2023-04-15T09:01:40;5.13;;;2.03;;
38785;SDS011;24535;45.508;12.252;2023-04-15T09:04:06;5.75;;;2.40;;
38785;SDS011;24535;45.508;12.252;2023-04-15T09:06:32;6.43;;;2.25;;
38785;SDS011;24535;45.508;12.252;2023-04-15T09:08:58;4.55;;;1.40;;
38785;SDS011;24535;45.508;12.252;2023-04-15T09:11:23;6.03;;;1.52;;
38785;SDS011;24535;45.508;12.252;2023-04-15T09:13:49;3.45;;;1.73;;
38785;SDS011;24535;45.508;12.252;2023-04-15T09:16:15;4.47;;;1.65;;
38785;SDS011;24535;45.508;12.252;2023-04-15T09:18:41;3.47;;;1.55;;
38785;SDS011;24535;45.508;12.252;2023-04-15T09:21:08;4.72;;;2.00;;
38785;SDS011;24535;45.508;12.252;2023-04-15T09:23:35;5.10;;;2.17;;
38785;SDS011;24535;45.508;12.252;2023-04-15T09:26:01;4.03;;;1.92;;
38785;SDS011;24535;45.508;12.252;2023-04-15T09:28:28;7.32;;;1.60;;
38785;SDS011;24535;45.508;12.252;2023-04-15T09:31:00;3.58;;;1.73;;
38785;SDS011;24535;45.508;12.252;2023-04-15T09:33:28;6.82;;;1.90;;
38785;SDS011;24535;45.508;12.252;2023-04-15T09:38:29;1.38;;;1.23;;
38785;SDS011;24535;45.508;12.252;2023-04-15T09:40:56;8.30;;;1.70;;
38785;SDS011;24535;45.508;12.252;2023-04-15T09:43:22;6.32;;;1.80;;
38785;SDS011;24535;45.508;12.252;2023-04-15T09:46:01;4.40;;;1.83;;
38785;SDS011;24535;45.508;12.252;2023-04-15T09:48:26;7.53;;;2.40;;
38785;SDS011;24535;45.508;12.252;2023-04-15T09:50:52;3.53;;;1.77;;
38785;SDS011;24535;45.508;12.252;2023-04-15T09:53:19;6.05;;;1.45;;
38785;SDS011;24535;45.508;12.252;2023-04-15T09:55:50;8.45;;;1.92;;
38785;SDS011;24535;45.508;12.252;2023-04-15T09:58:17;4.05;;;1.88;;
38785;SDS011;24535;45.508;12.252;2023-04-15T10:00:44;4.93;;;2.00;;
38785;SDS011;24535;45.508;12.252;2023-04-15T10:03:12;5.68;;;2.13;;
38785;SDS011;24535;45.508;12.252;2023-04-15T10:05:42;9.48;;;2.15;;
38785;SDS011;24535;45.508;12.252;2023-04-15T10:08:08;2.45;;;1.52;;
38785;SDS011;24535;45.508;12.252;2023-04-15T10:10:33;10.15;;;2.47;;
38785;SDS011;24535;45.508;12.252;2023-04-15T10:12:59;3.33;;;1.38;;
38785;SDS011;24535;45.508;12.252;2023-04-15T10:15:25;7.22;;;2.38;;
38785;SDS011;24535;45.508;12.252;2023-04-15T10:17:52;3.80;;;1.40;;
38785;SDS011;24535;45.508;12.252;2023-04-15T10:20:20;6.00;;;1.88;;
38785;SDS011;24535;45.508;12.252;2023-04-15T10:22:46;5.47;;;2.22;;
38785;SDS011;24535;45.508;12.252;2023-04-15T10:25:12;4.10;;;2.00;;
38785;SDS011;24535;45.508;12.252;2023-04-15T10:27:39;5.10;;;1.60;;
38785;SDS011;24535;45.508;12.252;2023-04-15T10:30:08;4.03;;;1.47;;
38785;SDS011;24535;45.508;12.252;2023-04-15T10:32:35;3.10;;;1.60;;
38785;SDS011;24535;45.508;12.252;2023-04-15T10:35:02;3.20;;;1.67;;
38785;SDS011;24535;45.508;12.252;2023-04-15T10:37:33;7.65;;;1.40;;
38785;SDS011;24535;45.508;12.252;2023-04-15T10:40:00;5.05;;;1.85;;
38785;SDS011;24535;45.508;12.252;2023-04-15T10:42:52;5.97;;;1.65;;
38785;SDS011;24535;45.508;12.252;2023-04-15T10:45:18;2.17;;;1.50;;
38785;SDS011;24535;45.508;12.252;2023-04-15T10:47:43;5.95;;;1.95;;
38785;SDS011;24535;45.508;12.252;2023-04-15T10:50:09;5.85;;;2.70;;
38785;SDS011;24535;45.508;12.252;2023-04-15T10:52:36;10.45;;;2.03;;
38785;SDS011;24535;45.508;12.252;2023-04-15T10:57:34;4.80;;;1.50;;
38785;SDS011;24535;45.508;12.252;2023-04-15T11:00:09;4.20;;;1.38;;
38785;SDS011;24535;45.508;12.252;2023-04-15T11:02:44;6.70;;;1.65;;
38785;SDS011;24535;45.508;12.252;2023-04-15T11:05:11;6.28;;;1.50;;
38785;SDS011;24535;45.508;12.252;2023-04-15T11:12:50;8.63;;;1.90;;
38785;SDS011;24535;45.508;12.252;2023-04-15T11:18:08;8.20;;;1.55;;
38785;SDS011;24535;45.508;12.252;2023-04-15T11:20:34;3.85;;;1.65;;
38785;SDS011;24535;45.508;12.252;2023-04-15T11:23:00;5.90;;;1.73;;
38785;SDS011;24535;45.508;12.252;2023-04-15T11:25:27;5.60;;;1.92;;
38785;SDS011;24535;45.508;12.252;2023-04-15T11:27:55;7.30;;;1.80;;
38785;SDS011;24535;45.508;12.252;2023-04-15T11:30:22;7.15;;;1.60;;
38785;SDS011;24535;45.508;12.252;2023-04-15T11:32:50;4.15;;;1.73;;
38785;SDS011;24535;45.508;12.252;2023-04-15T11:35:17;6.50;;;1.70;;
38785;SDS011;24535;45.508;12.252;2023-04-15T11:37:46;4.65;;;1.85;;
38785;SDS011;24535;45.508;12.252;2023-04-15T11:40:13;2.88;;;1.30;;
38785;SDS011;24535;45.508;12.252;2023-04-15T11:42:41;4.82;;;1.77;;
38785;SDS011;24535;45.508;12.252;2023-04-15T11:45:12;7.60;;;1.38;;
38785;SDS011;24535;45.508;12.252;2023-04-15T11:47:39;6.57;;;1.88;;
38785;SDS011;24535;45.508;12.252;2023-04-15T11:50:13;5.05;;;1.50;;
38785;SDS011;24535;45.508;12.252;2023-04-15T11:55:25;3.08;;;1.48;;
38785;SDS011;24535;45.508;12.252;2023-04-15T12:00:32;7.57;;;1.92;;
38785;SDS011;24535;45.508;12.252;2023-04-15T12:13:52;5.78;;;1.83;;
38785;SDS011;24535;45.508;12.252;2023-04-15T12:16:18;5.13;;;1.45;;
38785;SDS011;24535;45.508;12.252;2023-04-15T12:18:45;8.93;;;2.30;;
38785;SDS011;24535;45.508;12.252;2023-04-15T12:21:11;7.38;;;2.00;;
38785;SDS011;24535;45.508;12.252;2023-04-15T12:26:26;8.67;;;3.20;;
38785;SDS011;24535;45.508;12.252;2023-04-15T12:28:53;6.53;;;2.50;;
38785;SDS011;24535;45.508;12.252;2023-04-15T12:31:25;10.75;;;3.13;;
38785;SDS011;24535;45.508;12.252;2023-04-15T12:33:53;7.15;;;2.35;;
38785;SDS011;24535;45.508;12.252;2023-04-15T12:36:20;9.57;;;2.65;;
38785;SDS011;24535;45.508;12.252;2023-04-15T12:38:45;5.80;;;2.17;;
38785;SDS011;24535;45.508;12.252;2023-04-15T12:41:11;6.70;;;2.42;;
38785;SDS011;24535;45.508;12.252;2023-04-15T12:43:36;9.90;;;2.22;;
38785;SDS011;24535;45.508;12.252;2023-04-15T12:46:02;9.38;;;1.98;;
38785;SDS011;24535;45.508;12.252;2023-04-15T12:48:28;11.02;;;2.63;;
38785;SDS011;24535;45.508;12.252;2023-04-15T12:50:54;13.82;;;2.28;;
38785;SDS011;24535;45.508;12.252;2023-04-15T12:53:20;10.88;;;3.15;;
38785;SDS011;24535;45.508;12.252;2023-04-15T12:55:45;12.05;;;2.55;;
38785;SDS011;24535;45.508;12.252;2023-04-15T12:58:11;8.77;;;2.10;;
38785;SDS011;24535;45.508;12.252;2023-04-15T13:00:36;9.23;;;1.92;;
38785;SDS011;24535;45.508;12.252;2023-04-15T13:03:02;8.57;;;2.03;;
38785;SDS011;24535;45.508;12.252;2023-04-15T13:05:30;11.95;;;2.45;;
38785;SDS011;24535;45.508;12.252;2023-04-15T13:07:57;9.77;;;2.97;;
38785;SDS011;24535;45.508;12.252;2023-04-15T13:10:22;12.40;;;2.75;;
38785;SDS011;24535;45.508;12.252;2023-04-15T13:12:48;5.88;;;2.50;;
38785;SDS011;24535;45.508;12.252;2023-04-15T13:15:16;11.25;;;2.25;;
38785;SDS011;24535;45.508;12.252;2023-04-15T13:17:44;9.50;;;2.65;;
38785;SDS011;24535;45.508;12.252;2023-04-15T13:20:10;9.65;;;2.25;;
38785;SDS011;24535;45.508;12.252;2023-04-15T13:22:36;10.00;;;1.85;;
38785;SDS011;24535;45.508;12.252;2023-04-15T13:25:01;14.18;;;1.90;;
38785;SDS011;24535;45.508;12.252;2023-04-15T13:27:27;5.20;;;1.48;;
38785;SDS011;24535;45.508;12.252;2023-04-15T13:29:53;6.45;;;1.95;;
38785;SDS011;24535;45.508;12.252;2023-04-15T13:32:18;9.45;;;2.90;;
38785;SDS011;24535;45.508;12.252;2023-04-15T13:34:44;6.50;;;1.77;;
38785;SDS011;24535;45.508;12.252;2023-04-15T13:37:09;7.32;;;1.70;;
38785;SDS011;24535;45.508;12.252;2023-04-15T13:39:35;11.02;;;2.08;;
38785;SDS011;24535;45.508;12.252;2023-04-15T13:42:00;12.70;;;2.75;;
38785;SDS011;24535;45.508;12.252;2023-04-15T13:44:26;5.40;;;1.80;;
38785;SDS011;24535;45.508;12.252;2023-04-15T13:46:52;6.50;;;2.03;;
38785;SDS011;24535;45.508;12.252;2023-04-15T13:49:17;8.98;;;2.30;;
38785;SDS011;24535;45.508;12.252;2023-04-15T13:51:43;8.27;;;2.72;;
38785;SDS011;24535;45.508;12.252;2023-04-15T13:54:08;10.90;;;3.63;;
38785;SDS011;24535;45.508;12.252;2023-04-15T13:56:34;9.48;;;2.83;;
38785;SDS011;24535;45.508;12.252;2023-04-15T13:58:59;8.10;;;2.40;;
38785;SDS011;24535;45.508;12.252;2023-04-15T14:01:26;7.90;;;2.17;;
38785;SDS011;24535;45.508;12.252;2023-04-15T14:03:52;8.27;;;2.45;;
38785;SDS011;24535;45.508;12.252;2023-04-15T14:06:17;6.25;;;3.00;;
38785;SDS011;24535;45.508;12.252;2023-04-15T14:08:43;8.48;;;3.08;;
38785;SDS011;24535;45.508;12.252;2023-04-15T14:11:08;6.57;;;2.92;;
38785;SDS011;24535;45.508;12.252;2023-04-15T14:13:34;10.55;;;3.00;;
38785;SDS011;24535;45.508;12.252;2023-04-15T14:16:00;8.82;;;2.95;;
38785;SDS011;24535;45.508;12.252;2023-04-15T14:18:26;5.57;;;2.50;;
38785;SDS011;24535;45.508;12.252;2023-04-15T14:20:52;9.70;;;3.20;;
38785;SDS011;24535;45.508;12.252;2023-04-15T14:23:17;13.25;;;3.13;;
38785;SDS011;24535;45.508;12.252;2023-04-15T14:25:43;4.97;;;3.10;;
38785;SDS011;24535;45.508;12.252;2023-04-15T14:28:09;4.53;;;2.35;;
38785;SDS011;24535;45.508;12.252;2023-04-15T14:30:34;6.97;;;2.80;;
38785;SDS011;24535;45.508;12.252;2023-04-15T14:33:00;5.97;;;2.55;;
38785;SDS011;24535;45.508;12.252;2023-04-15T14:35:26;7.50;;;2.63;;
38785;SDS011;24535;45.508;12.252;2023-04-15T14:37:52;7.45;;;2.55;;
38785;SDS011;24535;45.508;12.252;2023-04-15T14:40:18;6.82;;;1.88;;
38785;SDS011;24535;45.508;12.252;2023-04-15T14:42:44;3.65;;;1.50;;
38785;SDS011;24535;45.508;12.252;2023-04-15T14:45:10;1.13;;;0.70;;
38785;SDS011;24535;45.508;12.252;2023-04-15T14:47:35;2.95;;;0.95;;
38785;SDS011;24535;45.508;12.252;2023-04-15T14:50:01;2.17;;;0.70;;
38785;SDS011;24535;45.508;12.252;2023-04-15T14:52:26;2.35;;;0.90;;
38785;SDS011;24535;45.508;12.252;2023-04-15T14:54:52;3.47;;;0.82;;
38785;SDS011;24535;45.508;12.252;2023-04-15T14:57:17;2.80;;;1.02;;
38785;SDS011;24535;45.508;12.252;2023-04-15T14:59:43;3.50;;;1.23;;